sensor_id;sensor_type;location;lat;lon;timestamp;pressure;altitude;pressure_sealevel;temperature;humidity
28448;BME280;15675;52.870;-1.416;2023-02-28T00:00:45;102919.34;;;6.71;100.00
28448;BME280;15675;52.870;-1.416;2023-02-28T00:03:11;102921.44;;;6.95;100.00
28448;BME280;15675;52.870;-1.416;2023-02-28T00:05:37;102927.91;;;7.03;100.00
28448;BME280;15675;52.870;-1.416;2023-02-28T00:08:03;102923.22;;;6.96;100.00
28448;BME280;15675;52.870;-1.416;2023-02-28T00:10:29;102925.06;;;6.82;100.00
28448;BME280;15675;52.870;-1.416;2023-02-28T00:12:59;102919.25;;;6.86;100.00
28448;BME280;15675;52.870;-1.416;2023-02-28T00:15:26;102917.59;;;6.87;100.00
28448;BME280;15675;52.870;-1.416;2023-02-28T00:17:51;102927.56;;;6.81;100.00
28448;BME280;15675;52.870;-1.416;2023-02-28T00:20:18;102931.28;;;6.86;100.00
28448;BME280;15675;52.870;-1.416;2023-02-28T00:22:46;102929.19;;;6.79;100.00
28448;BME280;15675;52.870;-1.416;2023-02-28T00:25:15;102938.13;;;6.85;100.00
28448;BME280;15675;52.870;-1.416;2023-02-28T00:27:42;102937.59;;;6.60;100.00
28448;BME280;15675;52.870;-1.416;2023-02-28T00:30:14;102935.78;;;6.73;100.00
28448;BME280;15675;52.870;-1.416;2023-02-28T00:32:40;102925.13;;;6.67;100.00
28448;BME280;15675;52.870;-1.416;2023-02-28T00:35:08;102931.09;;;6.66;100.00
28448;BME280;15675;52.870;-1.416;2023-02-28T00:37:34;102933.44;;;6.78;100.00
28448;BME280;15675;52.870;-1.416;2023-02-28T00:40:00;102936.34;;;6.68;100.00
28448;BME280;15675;52.870;-1.416;2023-02-28T00:42:26;102931.63;;;6.61;100.00
28448;BME280;15675;52.870;-1.416;2023-02-28T00:44:52;102931.41;;;6.72;100.00
28448;BME280;15675;52.870;-1.416;2023-02-28T00:47:17;102926.13;;;6.86;100.00
28448;BME280;15675;52.870;-1.416;2023-02-28T00:49:43;102928.03;;;6.57;100.00
28448;BME280;15675;52.870;-1.416;2023-02-28T00:52:09;102936.78;;;6.76;100.00
28448;BME280;15675;52.870;-1.416;2023-02-28T00:54:35;102932.28;;;6.56;100.00
28448;BME280;15675;52.870;-1.416;2023-02-28T00:57:00;102933.88;;;6.54;100.00
28448;BME280;15675;52.870;-1.416;2023-02-28T00:59:26;102933.44;;;6.78;100.00
28448;BME280;15675;52.870;-1.416;2023-02-28T01:01:52;102943.00;;;6.96;100.00
28448;BME280;15675;52.870;-1.416;2023-02-28T01:04:17;102939.69;;;6.98;100.00
28448;BME280;15675;52.870;-1.416;2023-02-28T01:06:43;102936.69;;;6.90;100.00
28448;BME280;15675;52.870;-1.416;2023-02-28T01:09:09;102935.50;;;7.00;100.00
28448;BME280;15675;52.870;-1.416;2023-02-28T01:11:35;102937.44;;;7.04;100.00
28448;BME280;15675;52.870;-1.416;2023-02-28T01:14:01;102940.66;;;7.00;100.00
28448;BME280;15675;52.870;-1.416;2023-02-28T01:16:28;102942.44;;;7.01;100.00
28448;BME280;15675;52.870;-1.416;2023-02-28T01:18:53;102950.13;;;7.00;100.00
28448;BME280;15675;52.870;-1.416;2023-02-28T01:21:20;102946.97;;;7.05;100.00
28448;BME280;15675;52.870;-1.416;2023-02-28T01:23:46;102950.59;;;7.09;100.00
28448;BME280;15675;52.870;-1.416;2023-02-28T01:26:20;102951.47;;;7.09;100.00
28448;BME280;15675;52.870;-1.416;2023-02-28T01:28:46;102946.97;;;7.22;100.00
28448;BME280;15675;52.870;-1.416;2023-02-28T01:31:12;102949.56;;;7.22;100.00
28448;BME280;15675;52.870;-1.416;2023-02-28T01:33:38;102955.91;;;6.96;100.00
28448;BME280;15675;52.870;-1.416;2023-02-28T01:36:10;102952.53;;;7.13;100.00
28448;BME280;15675;52.870;-1.416;2023-02-28T01:38:36;102958.59;;;6.97;100.00
28448;BME280;15675;52.870;-1.416;2023-02-28T01:41:01;102948.03;;;7.25;100.00
28448;BME280;15675;52.870;-1.416;2023-02-28T01:43:52;102951.31;;;7.06;100.00
28448;BME280;15675;52.870;-1.416;2023-02-28T01:46:18;102946.00;;;6.87;100.00
28448;BME280;15675;52.870;-1.416;2023-02-28T01:49:03;102955.09;;;6.80;100.00
28448;BME280;15675;52.870;-1.416;2023-02-28T01:51:41;102951.00;;;7.00;100.00
28448;BME280;15675;52.870;-1.416;2023-02-28T01:54:14;102955.91;;;6.96;100.00
28448;BME280;15675;52.870;-1.416;2023-02-28T01:56:47;102953.75;;;7.03;100.00
28448;BME280;15675;52.870;-1.416;2023-02-28T01:59:22;102948.50;;;7.02;100.00
28448;BME280;15675;52.870;-1.416;2023-02-28T02:01:50;102945.75;;;6.99;100.00
28448;BME280;15675;52.870;-1.416;2023-02-28T02:04:16;102942.59;;;7.21;100.00
28448;BME280;15675;52.870;-1.416;2023-02-28T02:06:44;102944.28;;;7.04;100.00
28448;BME280;15675;52.870;-1.416;2023-02-28T02:09:11;102948.97;;;6.95;100.00
28448;BME280;15675;52.870;-1.416;2023-02-28T02:11:40;102942.88;;;6.78;100.00
28448;BME280;15675;52.870;-1.416;2023-02-28T02:14:16;102932.34;;;6.89;100.00
28448;BME280;15675;52.870;-1.416;2023-02-28T02:17:09;102939.13;;;6.87;100.00
28448;BME280;15675;52.870;-1.416;2023-02-28T02:20:50;102938.25;;;6.87;100.00
28448;BME280;15675;52.870;-1.416;2023-02-28T02:23:07;102931.38;;;7.04;100.00
28448;BME280;15675;52.870;-1.416;2023-02-28T02:36:14;102932.44;;;7.07;100.00
28448;BME280;15675;52.870;-1.416;2023-02-28T02:38:49;102929.19;;;7.28;100.00
28448;BME280;15675;52.870;-1.416;2023-02-28T02:41:39;102931.94;;;7.64;100.00
28448;BME280;15675;52.870;-1.416;2023-02-28T02:46:48;102930.66;;;7.06;100.00
28448;BME280;15675;52.870;-1.416;2023-02-28T02:49:22;102930.53;;;6.72;100.00
28448;BME280;15675;52.870;-1.416;2023-02-28T02:51:49;102928.59;;;6.68;100.00
28448;BME280;15675;52.870;-1.416;2023-02-28T02:54:28;102934.22;;;6.61;100.00
28448;BME280;15675;52.870;-1.416;2023-02-28T02:56:59;102924.22;;;6.67;100.00
28448;BME280;15675;52.870;-1.416;2023-02-28T02:59:28;102926.56;;;6.62;100.00
28448;BME280;15675;52.870;-1.416;2023-02-28T03:01:58;102926.88;;;6.37;100.00
28448;BME280;15675;52.870;-1.416;2023-02-28T03:04:25;102931.97;;;6.35;100.00
28448;BME280;15675;52.870;-1.416;2023-02-28T03:06:53;102930.06;;;6.63;100.00
28448;BME280;15675;52.870;-1.416;2023-02-28T03:09:23;102920.63;;;6.48;100.00
28448;BME280;15675;52.870;-1.416;2023-02-28T03:11:50;102928.59;;;6.36;100.00
28448;BME280;15675;52.870;-1.416;2023-02-28T03:20:04;102916.41;;;6.34;100.00
28448;BME280;15675;52.870;-1.416;2023-02-28T03:22:43;102918.03;;;6.48;100.00
28448;BME280;15675;52.870;-1.416;2023-02-28T03:28:32;102924.66;;;6.43;100.00
28448;BME280;15675;52.870;-1.416;2023-02-28T03:31:30;102925.59;;;6.60;100.00
28448;BME280;15675;52.870;-1.416;2023-02-28T03:36:32;102937.66;;;6.30;100.00
28448;BME280;15675;52.870;-1.416;2023-02-28T03:39:07;102934.56;;;6.20;100.00
28448;BME280;15675;52.870;-1.416;2023-02-28T03:41:42;102930.53;;;6.41;100.00
28448;BME280;15675;52.870;-1.416;2023-02-28T03:44:16;102933.69;;;6.20;100.00
28448;BME280;15675;52.870;-1.416;2023-02-28T03:46:50;102930.91;;;6.17;100.00
28448;BME280;15675;52.870;-1.416;2023-02-28T03:49:22;102928.84;;;6.41;100.00
28448;BME280;15675;52.870;-1.416;2023-02-28T03:51:49;102937.31;;;6.24;100.00
28448;BME280;15675;52.870;-1.416;2023-02-28T03:54:21;102931.41;;;6.41;100.00
28448;BME280;15675;52.870;-1.416;2023-02-28T03:56:52;102930.28;;;6.36;100.00
28448;BME280;15675;52.870;-1.416;2023-02-28T04:01:48;102935.78;;;6.73;100.00
28448;BME280;15675;52.870;-1.416;2023-02-28T04:04:15;102941.03;;;6.75;100.00
28448;BME280;15675;52.870;-1.416;2023-02-28T04:06:42;102944.88;;;6.20;100.00
28448;BME280;15675;52.870;-1.416;2023-02-28T04:09:11;102944.81;;;6.04;100.00
28448;BME280;15675;52.870;-1.416;2023-02-28T04:11:42;102948.72;;;5.97;100.00
28448;BME280;15675;52.870;-1.416;2023-02-28T04:14:10;102952.16;;;5.83;100.00
28448;BME280;15675;52.870;-1.416;2023-02-28T04:16:39;102948.34;;;5.76;100.00
28448;BME280;15675;52.870;-1.416;2023-02-28T04:19:06;102951.75;;;6.20;100.00
28448;BME280;15675;52.870;-1.416;2023-02-28T04:21:37;102948.69;;;6.42;100.00
28448;BME280;15675;52.870;-1.416;2023-02-28T04:24:10;102951.59;;;6.48;100.00
28448;BME280;15675;52.870;-1.416;2023-02-28T04:26:44;102953.91;;;6.59;100.00
28448;BME280;15675;52.870;-1.416;2023-02-28T04:29:11;102947.19;;;6.62;100.00
28448;BME280;15675;52.870;-1.416;2023-02-28T04:31:37;102949.31;;;6.69;100.00
28448;BME280;15675;52.870;-1.416;2023-02-28T04:34:03;102953.94;;;6.75;100.00
28448;BME280;15675;52.870;-1.416;2023-02-28T04:36:29;102952.72;;;6.68;100.00
28448;BME280;15675;52.870;-1.416;2023-02-28T04:38:55;102956.03;;;6.51;100.00
28448;BME280;15675;52.870;-1.416;2023-02-28T04:41:22;102956.50;;;6.59;100.00
28448;BME280;15675;52.870;-1.416;2023-02-28T04:43:48;102952.97;;;6.89;100.00
28448;BME280;15675;52.870;-1.416;2023-02-28T04:46:14;102960.22;;;7.12;100.00
28448;BME280;15675;52.870;-1.416;2023-02-28T04:48:41;102957.03;;;7.01;100.00
28448;BME280;15675;52.870;-1.416;2023-02-28T04:51:12;102958.34;;;7.42;100.00
28448;BME280;15675;52.870;-1.416;2023-02-28T04:53:39;102958.19;;;7.22;100.00
28448;BME280;15675;52.870;-1.416;2023-02-28T04:56:05;102952.59;;;6.98;100.00
28448;BME280;15675;52.870;-1.416;2023-02-28T04:58:31;102955.34;;;7.18;100.00
28448;BME280;15675;52.870;-1.416;2023-02-28T05:01:06;102954.53;;;6.86;100.00
28448;BME280;15675;52.870;-1.416;2023-02-28T05:03:41;102950.13;;;7.16;100.00
28448;BME280;15675;52.870;-1.416;2023-02-28T05:06:07;102945.44;;;7.42;100.00
28448;BME280;15675;52.870;-1.416;2023-02-28T05:08:33;102947.53;;;7.33;100.00
28448;BME280;15675;52.870;-1.416;2023-02-28T05:11:00;102948.81;;;7.41;100.00
28448;BME280;15675;52.870;-1.416;2023-02-28T05:13:27;102952.88;;;7.03;100.00
28448;BME280;15675;52.870;-1.416;2023-02-28T05:15:53;102946.88;;;6.87;100.00
28448;BME280;15675;52.870;-1.416;2023-02-28T05:18:18;102952.53;;;7.13;100.00
28448;BME280;15675;52.870;-1.416;2023-02-28T05:20:44;102946.22;;;7.08;100.00
28448;BME280;15675;52.870;-1.416;2023-02-28T05:23:12;102946.88;;;7.04;100.00
28448;BME280;15675;52.870;-1.416;2023-02-28T05:25:38;102947.25;;;6.79;100.00
28448;BME280;15675;52.870;-1.416;2023-02-28T05:28:04;102948.28;;;6.66;100.00
28448;BME280;15675;52.870;-1.416;2023-02-28T05:30:30;102948.91;;;6.62;100.00
28448;BME280;15675;52.870;-1.416;2023-02-28T05:32:57;102956.91;;;6.66;100.00
28448;BME280;15675;52.870;-1.416;2023-02-28T05:35:23;102958.38;;;6.46;100.00
28448;BME280;15675;52.870;-1.416;2023-02-28T05:37:49;102962.00;;;6.50;100.00
28448;BME280;15675;52.870;-1.416;2023-02-28T05:40:14;102961.66;;;6.75;100.00
28448;BME280;15675;52.870;-1.416;2023-02-28T05:42:41;102969.16;;;7.02;100.00
28448;BME280;15675;52.870;-1.416;2023-02-28T05:45:07;102963.19;;;7.03;100.00
28448;BME280;15675;52.870;-1.416;2023-02-28T05:47:33;102959.41;;;7.29;100.00
28448;BME280;15675;52.870;-1.416;2023-02-28T05:49:59;102962.03;;;7.64;100.00
28448;BME280;15675;52.870;-1.416;2023-02-28T05:52:25;102967.13;;;7.62;100.00
28448;BME280;15675;52.870;-1.416;2023-02-28T05:54:51;102962.94;;;7.15;100.00
28448;BME280;15675;52.870;-1.416;2023-02-28T05:57:16;102964.66;;;7.47;100.00
28448;BME280;15675;52.870;-1.416;2023-02-28T05:59:42;102964.06;;;7.03;100.00
28448;BME280;15675;52.870;-1.416;2023-02-28T06:02:12;102967.94;;;6.64;100.00
28448;BME280;15675;52.870;-1.416;2023-02-28T06:04:38;102965.78;;;6.71;100.00
28448;BME280;15675;52.870;-1.416;2023-02-28T06:07:03;102969.59;;;6.78;100.00
28448;BME280;15675;52.870;-1.416;2023-02-28T06:09:29;102969.09;;;6.69;100.00
28448;BME280;15675;52.870;-1.416;2023-02-28T06:11:58;102966.81;;;6.59;100.00
28448;BME280;15675;52.870;-1.416;2023-02-28T06:14:23;102974.28;;;6.54;100.00
28448;BME280;15675;52.870;-1.416;2023-02-28T06:16:49;102969.88;;;6.68;100.00
28448;BME280;15675;52.870;-1.416;2023-02-28T06:19:15;102964.16;;;6.73;100.00
28448;BME280;15675;52.870;-1.416;2023-02-28T06:21:41;102963.00;;;6.83;100.00
28448;BME280;15675;52.870;-1.416;2023-02-28T06:24:06;102958.94;;;6.72;100.00
28448;BME280;15675;52.870;-1.416;2023-02-28T06:26:32;102969.03;;;6.84;100.00
28448;BME280;15675;52.870;-1.416;2023-02-28T06:28:58;102961.56;;;6.88;100.00
28448;BME280;15675;52.870;-1.416;2023-02-28T06:31:23;102965.94;;;7.06;100.00
28448;BME280;15675;52.870;-1.416;2023-02-28T06:33:51;102971.22;;;7.24;100.00
28448;BME280;15675;52.870;-1.416;2023-02-28T06:36:17;102977.31;;;7.26;100.00
28448;BME280;15675;52.870;-1.416;2023-02-28T06:38:43;102975.38;;;6.74;100.00
28448;BME280;15675;52.870;-1.416;2023-02-28T06:41:10;102977.13;;;6.90;100.00
28448;BME280;15675;52.870;-1.416;2023-02-28T06:43:40;102981.22;;;6.86;100.00
28448;BME280;15675;52.870;-1.416;2023-02-28T06:46:08;102975.56;;;6.77;100.00
28448;BME280;15675;52.870;-1.416;2023-02-28T06:48:34;102977.47;;;6.65;100.00
28448;BME280;15675;52.870;-1.416;2023-02-28T06:51:08;102974.94;;;6.81;100.00
28448;BME280;15675;52.870;-1.416;2023-02-28T06:53:34;102977.47;;;6.65;100.00
28448;BME280;15675;52.870;-1.416;2023-02-28T06:56:07;102974.41;;;6.72;100.00
28448;BME280;15675;52.870;-1.416;2023-02-28T06:58:33;102991.31;;;6.67;100.00
28448;BME280;15675;52.870;-1.416;2023-02-28T07:00:59;102988.66;;;6.97;100.00
28448;BME280;15675;52.870;-1.416;2023-02-28T07:03:25;102989.75;;;6.69;100.00
28448;BME280;15675;52.870;-1.416;2023-02-28T07:05:51;102985.06;;;6.78;100.00
28448;BME280;15675;52.870;-1.416;2023-02-28T07:08:17;102995.91;;;6.87;100.00
28448;BME280;15675;52.870;-1.416;2023-02-28T07:10:42;102999.69;;;6.78;100.00
28448;BME280;15675;52.870;-1.416;2023-02-28T07:13:08;102994.69;;;6.81;100.00
28448;BME280;15675;52.870;-1.416;2023-02-28T07:15:35;102996.09;;;6.90;100.00
28448;BME280;15675;52.870;-1.416;2023-02-28T07:18:00;103000.63;;;6.95;100.00
28448;BME280;15675;52.870;-1.416;2023-02-28T07:20:26;103008.97;;;6.59;100.00
28448;BME280;15675;52.870;-1.416;2023-02-28T07:22:52;103003.50;;;6.84;100.00
28448;BME280;15675;52.870;-1.416;2023-02-28T07:25:26;103003.06;;;6.77;100.00
28448;BME280;15675;52.870;-1.416;2023-02-28T07:27:52;103000.53;;;6.62;100.00
28448;BME280;15675;52.870;-1.416;2023-02-28T07:30:17;103002.06;;;6.43;100.00
28448;BME280;15675;52.870;-1.416;2023-02-28T07:32:43;103018.41;;;6.59;100.00
28448;BME280;15675;52.870;-1.416;2023-02-28T07:35:09;103016.72;;;6.59;100.00
28448;BME280;15675;52.870;-1.416;2023-02-28T07:37:34;103019.31;;;6.29;100.00
28448;BME280;15675;52.870;-1.416;2023-02-28T07:40:08;103017.81;;;6.18;100.00
28448;BME280;15675;52.870;-1.416;2023-02-28T07:42:35;103014.34;;;6.17;100.00
28448;BME280;15675;52.870;-1.416;2023-02-28T07:45:02;103016.22;;;6.20;100.00
28448;BME280;15675;52.870;-1.416;2023-02-28T07:47:31;103020.84;;;6.26;100.00
28448;BME280;15675;52.870;-1.416;2023-02-28T07:49:57;103018.91;;;6.21;100.00
28448;BME280;15675;52.870;-1.416;2023-02-28T07:52:23;103019.22;;;6.43;100.00
28448;BME280;15675;52.870;-1.416;2023-02-28T07:54:52;103012.09;;;6.53;100.00
28448;BME280;15675;52.870;-1.416;2023-02-28T07:57:18;103015.69;;;6.87;100.00
28448;BME280;15675;52.870;-1.416;2023-02-28T07:59:43;103014.13;;;7.22;100.00
28448;BME280;15675;52.870;-1.416;2023-02-28T08:02:14;103019.66;;;6.97;100.00
28448;BME280;15675;52.870;-1.416;2023-02-28T08:04:40;103019.47;;;6.77;100.00
28448;BME280;15675;52.870;-1.416;2023-02-28T08:07:06;103024.09;;;6.68;100.00
28448;BME280;15675;52.870;-1.416;2023-02-28T08:09:32;103015.25;;;6.79;100.00
28448;BME280;15675;52.870;-1.416;2023-02-28T08:11:57;103011.72;;;6.77;100.00
28448;BME280;15675;52.870;-1.416;2023-02-28T08:14:23;103022.59;;;6.56;100.00
28448;BME280;15675;52.870;-1.416;2023-02-28T08:16:48;103018.53;;;6.77;100.00
28448;BME280;15675;52.870;-1.416;2023-02-28T08:19:14;103012.72;;;6.64;100.00
28448;BME280;15675;52.870;-1.416;2023-02-28T08:21:39;103024.03;;;6.51;100.00
28448;BME280;15675;52.870;-1.416;2023-02-28T08:24:05;103016.31;;;6.83;100.00
28448;BME280;15675;52.870;-1.416;2023-02-28T08:26:31;103012.22;;;6.86;100.00
28448;BME280;15675;52.870;-1.416;2023-02-28T08:28:57;103017.22;;;6.83;100.00
28448;BME280;15675;52.870;-1.416;2023-02-28T08:31:22;103019.31;;;6.59;100.00
28448;BME280;15675;52.870;-1.416;2023-02-28T08:33:48;103009.72;;;6.88;100.00
28448;BME280;15675;52.870;-1.416;2023-02-28T08:36:16;103013.91;;;6.86;100.00
28448;BME280;15675;52.870;-1.416;2023-02-28T08:38:42;103011.63;;;6.76;100.00
28448;BME280;15675;52.870;-1.416;2023-02-28T08:41:10;103006.09;;;6.84;100.00
28448;BME280;15675;52.870;-1.416;2023-02-28T08:43:37;103015.03;;;6.91;100.00
28448;BME280;15675;52.870;-1.416;2023-02-28T08:46:03;103016.25;;;6.66;100.00
28448;BME280;15675;52.870;-1.416;2023-02-28T08:48:32;103002.34;;;6.79;100.00
28448;BME280;15675;52.870;-1.416;2023-02-28T08:51:08;103018.22;;;7.02;100.00
28448;BME280;15675;52.870;-1.416;2023-02-28T08:53:38;103018.38;;;6.88;100.00
28448;BME280;15675;52.870;-1.416;2023-02-28T08:56:10;103012.97;;;7.00;100.00
28448;BME280;15675;52.870;-1.416;2023-02-28T08:58:36;103013.84;;;6.84;100.00
28448;BME280;15675;52.870;-1.416;2023-02-28T09:01:08;103020.88;;;6.87;100.00
28448;BME280;15675;52.870;-1.416;2023-02-28T09:03:34;103022.19;;;7.28;100.00
28448;BME280;15675;52.870;-1.416;2023-02-28T09:06:00;103026.22;;;6.75;100.00
28448;BME280;15675;52.870;-1.416;2023-02-28T09:08:27;103009.06;;;6.92;100.00
28448;BME280;15675;52.870;-1.416;2023-02-28T09:10:53;103027.13;;;6.61;100.00
28448;BME280;15675;52.870;-1.416;2023-02-28T09:13:20;103028.13;;;6.48;100.00
28448;BME280;15675;52.870;-1.416;2023-02-28T09:15:45;103023.38;;;6.55;100.00
28448;BME280;15675;52.870;-1.416;2023-02-28T09:18:11;103029.88;;;6.64;100.00
28448;BME280;15675;52.870;-1.416;2023-02-28T09:20:38;103037.06;;;6.84;100.00
28448;BME280;15675;52.870;-1.416;2023-02-28T09:23:06;103029.16;;;6.81;100.00
28448;BME280;15675;52.870;-1.416;2023-02-28T09:25:32;103044.75;;;6.38;100.00
28448;BME280;15675;52.870;-1.416;2023-02-28T09:27:57;103023.22;;;6.52;100.00
28448;BME280;15675;52.870;-1.416;2023-02-28T09:30:23;103034.47;;;6.84;100.00
28448;BME280;15675;52.870;-1.416;2023-02-28T09:32:49;103039.13;;;6.75;100.00
28448;BME280;15675;52.870;-1.416;2023-02-28T09:35:18;103039.22;;;6.47;100.00
28448;BME280;15675;52.870;-1.416;2023-02-28T09:37:44;103027.47;;;6.67;100.00
28448;BME280;15675;52.870;-1.416;2023-02-28T09:40:11;103037.28;;;6.57;100.00
28448;BME280;15675;52.870;-1.416;2023-02-28T09:42:38;103032.63;;;6.67;100.00
28448;BME280;15675;52.870;-1.416;2023-02-28T09:45:14;103025.50;;;6.78;100.00
28448;BME280;15675;52.870;-1.416;2023-02-28T09:47:45;103033.84;;;6.88;100.00
28448;BME280;15675;52.870;-1.416;2023-02-28T09:52:49;103024.91;;;6.98;100.00
28448;BME280;15675;52.870;-1.416;2023-02-28T09:57:49;103043.16;;;6.70;100.00
28448;BME280;15675;52.870;-1.416;2023-02-28T10:05:48;103036.38;;;6.72;100.00
28448;BME280;15675;52.870;-1.416;2023-02-28T10:08:24;103036.69;;;6.78;100.00
28448;BME280;15675;52.870;-1.416;2023-02-28T10:10:55;103043.50;;;6.61;100.00
28448;BME280;15675;52.870;-1.416;2023-02-28T10:16:26;103058.19;;;6.32;100.00
28448;BME280;15675;52.870;-1.416;2023-02-28T10:19:05;103054.63;;;6.60;100.00
28448;BME280;15675;52.870;-1.416;2023-02-28T10:21:39;103055.25;;;6.41;100.00
28448;BME280;15675;52.870;-1.416;2023-02-28T10:24:19;103046.84;;;6.90;100.00
28448;BME280;15675;52.870;-1.416;2023-02-28T10:26:45;103042.16;;;6.68;100.00
28448;BME280;15675;52.870;-1.416;2023-02-28T10:29:12;103039.91;;;6.89;100.00
28448;BME280;15675;52.870;-1.416;2023-02-28T10:31:39;103038.94;;;6.87;100.00
28448;BME280;15675;52.870;-1.416;2023-02-28T10:34:05;103029.78;;;6.77;100.00
28448;BME280;15675;52.870;-1.416;2023-02-28T10:36:31;103047.97;;;6.95;100.00
28448;BME280;15675;52.870;-1.416;2023-02-28T10:38:57;103069.50;;;6.49;100.00
28448;BME280;15675;52.870;-1.416;2023-02-28T10:41:30;103049.19;;;6.55;100.00
28448;BME280;15675;52.870;-1.416;2023-02-28T10:44:32;103050.72;;;6.52;100.00
28448;BME280;15675;52.870;-1.416;2023-02-28T10:46:57;103037.44;;;6.61;100.00
28448;BME280;15675;52.870;-1.416;2023-02-28T10:49:26;103045.81;;;6.56;100.00
28448;BME280;15675;52.870;-1.416;2023-02-28T10:51:55;103035.25;;;6.52;100.00
28448;BME280;15675;52.870;-1.416;2023-02-28T10:54:35;103042.25;;;7.01;100.00
28448;BME280;15675;52.870;-1.416;2023-02-28T10:57:19;103031.78;;;6.51;100.00
28448;BME280;15675;52.870;-1.416;2023-02-28T10:59:46;103028.38;;;6.67;100.00
28448;BME280;15675;52.870;-1.416;2023-02-28T11:02:31;103022.66;;;6.73;100.00
28448;BME280;15675;52.870;-1.416;2023-02-28T11:04:57;103029.03;;;6.80;100.00
28448;BME280;15675;52.870;-1.416;2023-02-28T11:07:25;103021.84;;;6.74;100.00
28448;BME280;15675;52.870;-1.416;2023-02-28T11:09:53;103015.31;;;6.96;100.00
28448;BME280;15675;52.870;-1.416;2023-02-28T11:12:23;103028.28;;;6.66;100.00
28448;BME280;15675;52.870;-1.416;2023-02-28T11:14:52;103023.31;;;6.85;100.00
28448;BME280;15675;52.870;-1.416;2023-02-28T11:17:23;103010.63;;;7.05;100.00
28448;BME280;15675;52.870;-1.416;2023-02-28T11:19:52;103014.94;;;7.21;100.00
28448;BME280;15675;52.870;-1.416;2023-02-28T11:22:30;103013.38;;;7.08;100.00
28448;BME280;15675;52.870;-1.416;2023-02-28T11:25:00;103011.63;;;7.23;100.00
28448;BME280;15675;52.870;-1.416;2023-02-28T11:29:57;102998.41;;;7.17;100.00
28448;BME280;15675;52.870;-1.416;2023-02-28T11:32:27;103005.47;;;7.05;100.00
28448;BME280;15675;52.870;-1.416;2023-02-28T11:35:34;103000.13;;;7.50;100.00
28448;BME280;15675;52.870;-1.416;2023-02-28T11:38:00;103003.59;;;7.02;100.00
28448;BME280;15675;52.870;-1.416;2023-02-28T11:48:48;102996.13;;;7.56;100.00
28448;BME280;15675;52.870;-1.416;2023-02-28T11:51:24;102999.78;;;7.27;100.00
28448;BME280;15675;52.870;-1.416;2023-02-28T11:56:36;102981.41;;;7.72;100.00
28448;BME280;15675;52.870;-1.416;2023-02-28T12:02:25;102966.47;;;7.66;100.00
28448;BME280;15675;52.870;-1.416;2023-02-28T12:10:37;102948.66;;;7.89;100.00
28448;BME280;15675;52.870;-1.416;2023-02-28T12:26:57;102934.66;;;8.02;100.00
28448;BME280;15675;52.870;-1.416;2023-02-28T12:29:32;102933.75;;;8.19;100.00
28448;BME280;15675;52.870;-1.416;2023-02-28T12:32:05;102923.59;;;8.22;100.00
28448;BME280;15675;52.870;-1.416;2023-02-28T12:34:36;102923.78;;;8.09;100.00
28448;BME280;15675;52.870;-1.416;2023-02-28T12:37:10;102917.91;;;7.77;100.00
28448;BME280;15675;52.870;-1.416;2023-02-28T12:39:45;102934.28;;;8.12;100.00
28448;BME280;15675;52.870;-1.416;2023-02-28T12:42:19;102906.88;;;8.16;100.00
28448;BME280;15675;52.870;-1.416;2023-02-28T12:45:01;102908.16;;;7.89;100.00
28448;BME280;15675;52.870;-1.416;2023-02-28T12:47:27;102894.81;;;8.16;100.00
28448;BME280;15675;52.870;-1.416;2023-02-28T12:50:05;102894.16;;;8.38;100.00
28448;BME280;15675;52.870;-1.416;2023-02-28T12:52:43;102888.84;;;8.35;100.00
28448;BME280;15675;52.870;-1.416;2023-02-28T12:58:05;102897.41;;;8.52;100.00
28448;BME280;15675;52.870;-1.416;2023-02-28T13:00:36;102897.31;;;8.69;100.00
28448;BME280;15675;52.870;-1.416;2023-02-28T13:06:15;102882.81;;;8.92;100.00
28448;BME280;15675;52.870;-1.416;2023-02-28T13:09:08;102886.91;;;8.13;100.00
28448;BME280;15675;52.870;-1.416;2023-02-28T13:11:49;102879.16;;;8.13;100.00
28448;BME280;15675;52.870;-1.416;2023-02-28T13:17:00;102856.69;;;7.94;100.00
28448;BME280;15675;52.870;-1.416;2023-02-28T13:19:29;102878.25;;;7.94;100.00
28448;BME280;15675;52.870;-1.416;2023-02-28T13:21:56;102876.13;;;8.04;100.00
28448;BME280;15675;52.870;-1.416;2023-02-28T13:29:37;102857.63;;;8.50;100.00
28448;BME280;15675;52.870;-1.416;2023-02-28T13:34:49;102870.44;;;8.47;100.00
28448;BME280;15675;52.870;-1.416;2023-02-28T13:37:34;102864.28;;;8.09;100.00
28448;BME280;15675;52.870;-1.416;2023-02-28T13:47:39;102851.63;;;8.51;100.00
28448;BME280;15675;52.870;-1.416;2023-02-28T13:56:03;102851.16;;;8.42;100.00
28448;BME280;15675;52.870;-1.416;2023-02-28T13:58:54;102857.53;;;8.30;100.00
28448;BME280;15675;52.870;-1.416;2023-02-28T14:01:29;102864.44;;;8.30;100.00
28448;BME280;15675;52.870;-1.416;2023-02-28T14:06:38;102849.06;;;8.15;100.00
28448;BME280;15675;52.870;-1.416;2023-02-28T14:11:40;102870.47;;;7.76;100.00
28448;BME280;15675;52.870;-1.416;2023-02-28T14:14:08;102851.88;;;8.20;100.00
28448;BME280;15675;52.870;-1.416;2023-02-28T14:19:15;102851.34;;;8.27;100.00
28448;BME280;15675;52.870;-1.416;2023-02-28T14:24:40;102855.72;;;8.28;100.00
28448;BME280;15675;52.870;-1.416;2023-02-28T14:34:55;102851.94;;;8.03;100.00
28448;BME280;15675;52.870;-1.416;2023-02-28T14:37:28;102849.09;;;7.97;100.00
28448;BME280;15675;52.870;-1.416;2023-02-28T14:39:56;102838.81;;;8.17;100.00
28448;BME280;15675;52.870;-1.416;2023-02-28T14:42:35;102840.88;;;8.61;100.00
28448;BME280;15675;52.870;-1.416;2023-02-28T14:45:03;102837.03;;;8.91;100.00
28448;BME280;15675;52.870;-1.416;2023-02-28T14:47:33;102829.78;;;8.64;100.00
28448;BME280;15675;52.870;-1.416;2023-02-28T14:50:02;102834.19;;;8.47;100.00
28448;BME280;15675;52.870;-1.416;2023-02-28T14:52:31;102834.84;;;8.61;100.00
28448;BME280;15675;52.870;-1.416;2023-02-28T14:55:10;102829.78;;;8.64;100.00
28448;BME280;15675;52.870;-1.416;2023-02-28T14:57:58;102842.34;;;8.19;100.00